Mazatenango, Guatemala
Current Conditions -  °F | °C
As of 1:00 AM on Friday 28 Nov 2014 (Local Time) from MGSJ Reporting Station
Clear Clear  
Wind Chill: 77°   Ceiling: Unl
Heat Index: 79°   Visibility: 6mi
Dew Point: 57°   Wind: 0mph
Humidity: 50%   Direction: NA
Pressure: 29.88"   Gusts: NA
Location:  14.31°N, 91.3°W
Report Text: MGSJ 280700Z 00000KT CAVOK 25/14 Q1012 A2988
Loading
Personal Weather Stations






























Interactive Weather Map New forecast layout! Learn more

10-Day Weather Forecast

Advertisements
Track Severe Weather on mobile